METAR AND TAF INFORMATION
METAR FOR CYSB
ADDS - METARS form results

(0617 UTC 27 April 2018)
Data provider http://aviationweather.gov/adds/metars/
 
METAR text: CYSB 270600Z 25005KT 15SM BKN240 02/M04 A2974 RMK CI5 SLP082
Conditions at: CYSB (SUDBURY AIRPORT , ON, CA) observed 0600 UTC 27 April 2018
Temperature: 2.0°C (36°F)
Dewpoint: -4.0°C (25°F) [RH = 64%]
Pressure (altimeter): 29.74 inches Hg (1007.2 mb)
[Sea-level pressure: 1008.2 mb]
Winds: from the WSW (250 degrees) at 6 MPH (5 knots; 2.6 m/s)
Visibility: 15 miles (24 km)
Ceiling: 24000 feet AGL
Clouds: broken clouds at 24000 feet AGL
Weather: no significant weather observed at this time

Forecast for: CYSB (SUDBURY AIRPORT , ON, CA)
Text: TAF CYSB 270138Z 2702/2714 23008KT P6SM BKN220
Forecast period: 0200 to 1100 UTC 27 April 2018
Forecast type: FROM: standard forecast or significant change
Winds: from the SW (230 degrees) at 9 MPH (8 knots; 4.2 m/s)
Visibility: 6 or more miles (10+ km)
Ceiling: 22000 feet AGL
Clouds: broken clouds at 22000 feet AGL
Weather: no significant weather forecast for this period
Forecast for: CYSB (SUDBURY AIRPORT , ON, CA)
Text: TAF CYSB 270138Z 2702/2714 23008KT P6SM BKN220
Forecast period: 0200 to 1100 UTC 27 April 2018
Forecast type: FROM: standard forecast or significant change
Winds: from the SW (230 degrees) at 9 MPH (8 knots; 4.2 m/s)
Visibility: 6 or more miles (10+ km)
Ceiling: 22000 feet AGL
Clouds: broken clouds at 22000 feet AGL
Weather: no significant weather forecast for this period
Forecast for: CYSB (SUDBURY AIRPORT , ON, CA)
Text: TAF CYSB 270138Z 2702/2714 23008KT P6SM BKN220
Forecast period: 1100 to 1300 UTC 27 April 2018
Forecast type: FROM: standard forecast or significant change
Winds: from the NNE (20 degrees) at 12 MPH (10 knots; 5.2 m/s)
Visibility: 6 or more miles (10+ km)
Ceiling: 8000 feet AGL
Clouds: broken clouds at 8000 feet AGL
Weather: no significant weather forecast for this period
Forecast for: CYSB (SUDBURY AIRPORT , ON, CA)
Text: TAF CYSB 270138Z 2702/2714 23008KT P6SM BKN220
Forecast period: 1100 to 1300 UTC 27 April 2018
Forecast type: FROM: standard forecast or significant change
Winds: from the NNE (20 degrees) at 12 MPH (10 knots; 5.2 m/s)
Visibility: 6 or more miles (10+ km)
Ceiling: 8000 feet AGL
Clouds: broken clouds at 8000 feet AGL
Weather: no significant weather forecast for this period
Forecast for: CYSB (SUDBURY AIRPORT , ON, CA)
Text: TAF CYSB 270138Z 2702/2714 23008KT P6SM BKN220
Forecast period: 1300 to 1400 UTC 27 April 2018
Forecast type: FROM: standard forecast or significant change
Winds: from the NNE (30 degrees) at 9 MPH (8 knots; 4.2 m/s)
Visibility: 4 miles (6 km)
Ceiling: 1500 feet AGL
Clouds: broken clouds at 1500 feet AGL
overcast cloud deck at 8000 feet AGL
Weather: -SN -RA BR  (light snow, light rain, mist)
Forecast for: CYSB (SUDBURY AIRPORT , ON, CA)
Text: TAF CYSB 270138Z 2702/2714 23008KT P6SM BKN220
Forecast period: 1300 to 1400 UTC 27 April 2018
Forecast type: FROM: standard forecast or significant change
Winds: from the NNE (30 degrees) at 9 MPH (8 knots; 4.2 m/s)
Visibility: 4 miles (6 km)
Ceiling: 1500 feet AGL
Clouds: broken clouds at 1500 feet AGL
overcast cloud deck at 8000 feet AGL
Weather: -SN -RA BR  (light snow, light rain, mist)

 AIRPORT MAP

 RUNWAY INFORMATION
Runway 04 Runway length 6600 ft Runway width 200 ft
Runway elevation 1129 ft Runway displaced threshold 0 ft Runway heading 29
Runway 22 Runway length 6600 ft Runway width 200 ft
Runway elevation 1141 ft Runway displaced threshold 0 ft Runway heading 209
Runway 12 Runway length 5000 ft Runway width 150 ft
Runway elevation 1127 ft Runway displaced threshold 0 ft Runway heading 106
Runway 30 Runway length 5000 ft Runway width 150 ft
Runway elevation 1141 ft Runway displaced threshold 0 ft Runway heading 286

 AIRPORT FREQUENCIES
Type ATIS Name ATIS Frequency 127.4 MHZ
Type CNTR Name TORONTO CN Frequency 135.5 MHZ
Type MF Name rdo Frequency 125.5 MHZ
Type RCO Name LONDON RDO Frequency 123.475 MHZ

 AIRPORT NEAR NAVIGATION AIDS
Type NDB Name Sudbury Frequency 362 KHZ
Type VOR-DME Name Sudbury Frequency 112300 KHZ
Type NDB Name Noranda Frequency 344 KHZ



Powered by Virtual Airlines Manager [v2.6.2]